sensor_id;sensor_type;location;lat;lon;timestamp;pressure;altitude;pressure_sealevel;temperature;humidity
61484;BME280;47349;55.640;37.692;2023-05-25T03:30:51;99242.69;;;17.59;90.53
61484;BME280;47349;55.640;37.692;2023-05-25T03:33:28;99253.75;;;17.76;90.59
61484;BME280;47349;55.640;37.692;2023-05-25T03:36:10;99237.53;;;17.69;90.92
61484;BME280;47349;55.640;37.692;2023-05-25T03:38:53;99216.91;;;17.56;90.34
61484;BME280;47349;55.640;37.692;2023-05-25T03:41:37;99240.44;;;17.86;90.57
61484;BME280;47349;55.640;37.692;2023-05-25T03:44:20;99241.13;;;17.93;90.19
61484;BME280;47349;55.640;37.692;2023-05-25T03:46:57;99253.06;;;18.04;89.45
61484;BME280;47349;55.640;37.692;2023-05-25T03:49:24;99249.41;;;18.10;88.39
61484;BME280;47349;55.640;37.692;2023-05-25T03:51:51;99228.66;;;18.04;88.03
61484;BME280;47349;55.640;37.692;2023-05-25T03:54:19;99243.28;;;18.26;88.16
61484;BME280;47349;55.640;37.692;2023-05-25T03:56:49;99223.81;;;18.29;88.07
61484;BME280;47349;55.640;37.692;2023-05-25T03:59:18;99233.81;;;18.40;87.89
61484;BME280;47349;55.640;37.692;2023-05-25T04:01:46;99212.13;;;18.40;87.89
61484;BME280;47349;55.640;37.692;2023-05-25T04:04:15;99205.63;;;18.53;87.90
61484;BME280;47349;55.640;37.692;2023-05-25T04:06:43;99198.06;;;18.55;87.48
61484;BME280;47349;55.640;37.692;2023-05-25T04:09:14;99192.56;;;18.38;87.98
61484;BME280;47349;55.640;37.692;2023-05-25T04:11:56;99216.38;;;18.48;88.14
61484;BME280;47349;55.640;37.692;2023-05-25T04:14:38;99206.94;;;18.39;89.12
61484;BME280;47349;55.640;37.692;2023-05-25T04:17:24;99196.81;;;18.34;89.27
61484;BME280;47349;55.640;37.692;2023-05-25T04:20:09;99188.53;;;18.41;89.00
61484;BME280;47349;55.640;37.692;2023-05-25T04:22:55;99210.13;;;18.47;89.75
61484;BME280;47349;55.640;37.692;2023-05-25T04:25:44;99182.63;;;18.32;88.78
61484;BME280;47349;55.640;37.692;2023-05-25T04:28:31;99214.78;;;18.64;88.93
61484;BME280;47349;55.640;37.692;2023-05-25T04:31:36;99220.34;;;18.69;87.43
61484;BME280;47349;55.640;37.692;2023-05-25T04:34:34;99193.22;;;18.57;86.72
61484;BME280;47349;55.640;37.692;2023-05-25T04:37:14;99238.69;;;18.90;85.48
61484;BME280;47349;55.640;37.692;2023-05-25T04:40:00;99213.97;;;19.04;85.07
61484;BME280;47349;55.640;37.692;2023-05-25T04:42:48;99205.06;;;19.20;84.43
61484;BME280;47349;55.640;37.692;2023-05-25T04:45:34;99190.31;;;19.16;82.78
61484;BME280;47349;55.640;37.692;2023-05-25T04:48:20;99199.81;;;19.30;82.11
61484;BME280;47349;55.640;37.692;2023-05-25T04:50:48;99189.13;;;19.40;81.49
61484;BME280;47349;55.640;37.692;2023-05-25T04:53:16;99213.38;;;19.59;80.97
61484;BME280;47349;55.640;37.692;2023-05-25T04:55:46;99200.00;;;19.40;80.88
61484;BME280;47349;55.640;37.692;2023-05-25T04:58:15;99226.03;;;19.53;79.74
61484;BME280;47349;55.640;37.692;2023-05-25T05:00:43;99190.22;;;19.39;80.02
61484;BME280;47349;55.640;37.692;2023-05-25T05:03:10;99218.13;;;19.51;78.82
61484;BME280;47349;55.640;37.692;2023-05-25T05:05:38;99220.00;;;19.34;78.54
61484;BME280;47349;55.640;37.692;2023-05-25T05:08:09;99215.97;;;19.37;78.88
61484;BME280;47349;55.640;37.692;2023-05-25T05:10:36;99214.06;;;19.20;79.77
61484;BME280;47349;55.640;37.692;2023-05-25T05:13:05;99210.72;;;19.18;79.51
61484;BME280;47349;55.640;37.692;2023-05-25T05:15:32;99216.34;;;19.29;78.99
61484;BME280;47349;55.640;37.692;2023-05-25T05:17:59;99206.50;;;19.39;78.57
61484;BME280;47349;55.640;37.692;2023-05-25T05:20:27;99222.00;;;19.56;78.50
61484;BME280;47349;55.640;37.692;2023-05-25T05:22:56;99206.91;;;19.31;78.66
61484;BME280;47349;55.640;37.692;2023-05-25T05:25:23;99223.00;;;19.49;78.61
61484;BME280;47349;55.640;37.692;2023-05-25T05:27:50;99209.31;;;19.44;78.45
61484;BME280;47349;55.640;37.692;2023-05-25T05:30:31;99214.59;;;19.51;78.69
61484;BME280;47349;55.640;37.692;2023-05-25T05:33:36;99197.19;;;19.35;79.11
61484;BME280;47349;55.640;37.692;2023-05-25T05:36:39;99192.94;;;19.39;78.80
61484;BME280;47349;55.640;37.692;2023-05-25T05:40:33;99233.84;;;19.78;77.75
61484;BME280;47349;55.640;37.692;2023-05-25T05:44:05;99226.91;;;19.70;77.21
61484;BME280;47349;55.640;37.692;2023-05-25T05:46:48;99225.53;;;19.68;77.43
61484;BME280;47349;55.640;37.692;2023-05-25T05:49:46;99226.09;;;19.70;77.88
61484;BME280;47349;55.640;37.692;2023-05-25T05:52:17;99196.63;;;19.50;78.22
61484;BME280;47349;55.640;37.692;2023-05-25T05:55:21;99220.66;;;19.70;78.51
61484;BME280;47349;55.640;37.692;2023-05-25T05:58:16;99205.63;;;19.50;78.84
61484;BME280;47349;55.640;37.692;2023-05-25T06:01:21;99207.25;;;19.51;79.00
61484;BME280;47349;55.640;37.692;2023-05-25T06:04:32;99198.16;;;19.29;79.04
61484;BME280;47349;55.640;37.692;2023-05-25T06:07:52;99202.75;;;19.29;79.55
61484;BME280;47349;55.640;37.692;2023-05-25T06:11:07;99206.50;;;19.39;78.82
61484;BME280;47349;55.640;37.692;2023-05-25T06:14:18;99218.13;;;19.51;78.94
61484;BME280;47349;55.640;37.692;2023-05-25T06:20:54;99192.59;;;19.52;78.77
61484;BME280;47349;55.640;37.692;2023-05-25T06:23:45;99185.34;;;19.41;78.72
61484;BME280;47349;55.640;37.692;2023-05-25T06:26:33;99184.91;;;19.33;79.06
61484;BME280;47349;55.640;37.692;2023-05-25T06:29:10;99188.63;;;19.43;79.50
61484;BME280;47349;55.640;37.692;2023-05-25T06:32:07;99184.19;;;19.37;79.41
61484;BME280;47349;55.640;37.692;2023-05-25T06:34:54;99210.88;;;19.57;79.86
61484;BME280;47349;55.640;37.692;2023-05-25T06:38:19;99236.88;;;19.65;80.18
61484;BME280;47349;55.640;37.692;2023-05-25T06:41:47;99235.59;;;19.56;81.18
61484;BME280;47349;55.640;37.692;2023-05-25T06:44:33;99202.63;;;19.35;82.51
61484;BME280;47349;55.640;37.692;2023-05-25T06:47:36;99224.81;;;19.44;83.48
61484;BME280;47349;55.640;37.692;2023-05-25T06:50:24;99200.38;;;19.15;84.62
61484;BME280;47349;55.640;37.692;2023-05-25T06:53:07;99195.03;;;19.20;84.82
61484;BME280;47349;55.640;37.692;2023-05-25T06:55:56;99203.72;;;19.34;85.13
61484;BME280;47349;55.640;37.692;2023-05-25T06:59:01;99213.69;;;19.45;85.46
61484;BME280;47349;55.640;37.692;2023-05-25T07:01:45;99232.53;;;19.52;87.12
61484;BME280;47349;55.640;37.692;2023-05-25T07:04:29;99226.63;;;19.55;87.81
61484;BME280;47349;55.640;37.692;2023-05-25T07:07:13;99223.31;;;19.53;88.38
61484;BME280;47349;55.640;37.692;2023-05-25T07:09:56;99213.84;;;19.56;88.41
61484;BME280;47349;55.640;37.692;2023-05-25T07:12:43;99224.25;;;19.59;88.67
61484;BME280;47349;55.640;37.692;2023-05-25T07:15:26;99235.22;;;19.81;88.95
61484;BME280;47349;55.640;37.692;2023-05-25T07:18:28;99229.31;;;19.84;89.54
61484;BME280;47349;55.640;37.692;2023-05-25T07:21:11;99224.34;;;19.81;89.48
61484;BME280;47349;55.640;37.692;2023-05-25T07:23:57;99233.41;;;19.86;89.41
61484;BME280;47349;55.640;37.692;2023-05-25T07:26:55;99224.59;;;19.96;89.76
61484;BME280;47349;55.640;37.692;2023-05-25T07:29:40;99206.00;;;19.88;89.73
61484;BME280;47349;55.640;37.692;2023-05-25T07:32:22;99209.69;;;19.98;89.58
61484;BME280;47349;55.640;37.692;2023-05-25T07:35:06;99184.16;;;19.83;90.06
61484;BME280;47349;55.640;37.692;2023-05-25T07:38:01;99214.72;;;20.07;89.17
61484;BME280;47349;55.640;37.692;2023-05-25T07:40:46;99212.69;;;20.19;88.81
61484;BME280;47349;55.640;37.692;2023-05-25T07:43:48;99240.06;;;20.29;88.13
61484;BME280;47349;55.640;37.692;2023-05-25T07:46:30;99186.34;;;20.02;89.16
61484;BME280;47349;55.640;37.692;2023-05-25T07:49:12;99203.38;;;20.15;89.30
61484;BME280;47349;55.640;37.692;2023-05-25T07:51:42;99220.38;;;20.22;90.12
61484;BME280;47349;55.640;37.692;2023-05-25T07:54:11;99214.03;;;20.16;90.46
61484;BME280;47349;55.640;37.692;2023-05-25T07:56:38;99214.78;;;20.12;91.79
61484;BME280;47349;55.640;37.692;2023-05-25T07:59:06;99233.47;;;20.25;91.82
61484;BME280;47349;55.640;37.692;2023-05-25T08:01:33;99206.78;;;20.05;91.87
61484;BME280;47349;55.640;37.692;2023-05-25T08:04:01;99236.72;;;20.22;92.36
61484;BME280;47349;55.640;37.692;2023-05-25T08:06:29;99226.31;;;20.19;92.49
61484;BME280;47349;55.640;37.692;2023-05-25T08:08:56;99233.50;;;20.08;93.52
61484;BME280;47349;55.640;37.692;2023-05-25T08:11:23;99222.28;;;20.05;94.00
61484;BME280;47349;55.640;37.692;2023-05-25T08:13:52;99219.97;;;19.96;94.50
61484;BME280;47349;55.640;37.692;2023-05-25T08:16:19;99222.03;;;20.06;93.45
61484;BME280;47349;55.640;37.692;2023-05-25T08:18:47;99209.94;;;19.97;93.39
61484;BME280;47349;55.640;37.692;2023-05-25T08:21:33;99232.53;;;19.97;92.98
61484;BME280;47349;55.640;37.692;2023-05-25T08:24:01;99218.50;;;19.89;92.70
61484;BME280;47349;55.640;37.692;2023-05-25T08:26:30;99217.00;;;19.81;92.38
61484;BME280;47349;55.640;37.692;2023-05-25T08:29:18;99211.56;;;19.81;92.39
61484;BME280;47349;55.640;37.692;2023-05-25T08:31:45;99203.34;;;19.76;91.93
61484;BME280;47349;55.640;37.692;2023-05-25T08:34:15;99217.84;;;19.82;92.24
61484;BME280;47349;55.640;37.692;2023-05-25T08:36:42;99231.78;;;19.85;91.84
61484;BME280;47349;55.640;37.692;2023-05-25T08:39:10;99217.94;;;19.70;92.49
61484;BME280;47349;55.640;37.692;2023-05-25T08:41:43;99237.63;;;19.77;92.67
61484;BME280;47349;55.640;37.692;2023-05-25T08:44:10;99220.47;;;19.60;92.82
61484;BME280;47349;55.640;37.692;2023-05-25T08:46:37;99224.84;;;19.61;93.73
61484;BME280;47349;55.640;37.692;2023-05-25T08:49:11;99242.31;;;19.65;94.56
61484;BME280;47349;55.640;37.692;2023-05-25T08:54:17;99228.53;;;19.55;94.64
61484;BME280;47349;55.640;37.692;2023-05-25T08:56:49;99236.16;;;19.69;94.88
61484;BME280;47349;55.640;37.692;2023-05-25T09:01:48;99203.31;;;19.59;94.68
61484;BME280;47349;55.640;37.692;2023-05-25T09:04:18;99236.41;;;19.85;95.85
61484;BME280;47349;55.640;37.692;2023-05-25T09:07:01;99210.94;;;19.74;95.94
61484;BME280;47349;55.640;37.692;2023-05-25T09:09:40;99222.06;;;19.89;95.54
61484;BME280;47349;55.640;37.692;2023-05-25T09:12:08;99204.16;;;19.93;94.70
61484;BME280;47349;55.640;37.692;2023-05-25T09:14:35;99206.16;;;19.98;94.78
61484;BME280;47349;55.640;37.692;2023-05-25T09:17:03;99230.53;;;20.26;95.53
61484;BME280;47349;55.640;37.692;2023-05-25T09:19:31;99226.03;;;20.37;95.75
61484;BME280;47349;55.640;37.692;2023-05-25T09:21:59;99218.44;;;20.39;95.24
61484;BME280;47349;55.640;37.692;2023-05-25T09:24:29;99225.19;;;20.53;95.05
61484;BME280;47349;55.640;37.692;2023-05-25T09:26:58;99220.81;;;20.52;92.99
61484;BME280;47349;55.640;37.692;2023-05-25T09:29:25;99212.44;;;20.37;94.38
61484;BME280;47349;55.640;37.692;2023-05-25T09:31:53;99220.50;;;20.49;94.55
61484;BME280;47349;55.640;37.692;2023-05-25T09:34:22;99206.91;;;20.32;93.92
61484;BME280;47349;55.640;37.692;2023-05-25T09:36:54;99191.50;;;20.21;94.42
61484;BME280;47349;55.640;37.692;2023-05-25T09:40:09;99231.28;;;20.44;94.82
61484;BME280;47349;55.640;37.692;2023-05-25T09:43:13;99197.19;;;20.36;93.12
61484;BME280;47349;55.640;37.692;2023-05-25T09:46:06;99193.03;;;20.34;93.20
61484;BME280;47349;55.640;37.692;2023-05-25T09:48:51;99202.53;;;20.48;94.38
61484;BME280;47349;55.640;37.692;2023-05-25T09:51:37;99184.31;;;20.32;92.18
61484;BME280;47349;55.640;37.692;2023-05-25T09:54:22;99201.47;;;20.32;92.57
61484;BME280;47349;55.640;37.692;2023-05-25T09:57:06;99206.50;;;20.23;93.92
61484;BME280;47349;55.640;37.692;2023-05-25T09:59:51;99175.41;;;19.97;93.81
61484;BME280;47349;55.640;37.692;2023-05-25T10:02:37;99195.09;;;20.05;94.43
61484;BME280;47349;55.640;37.692;2023-05-25T10:05:20;99175.47;;;20.02;94.37
61484;BME280;47349;55.640;37.692;2023-05-25T10:08:02;99171.69;;;20.03;94.25
61484;BME280;47349;55.640;37.692;2023-05-25T10:10:48;99170.38;;;19.89;94.79
61484;BME280;47349;55.640;37.692;2023-05-25T10:13:31;99183.22;;;19.94;94.78
61484;BME280;47349;55.640;37.692;2023-05-25T10:16:15;99202.06;;;20.17;94.32
61484;BME280;47349;55.640;37.692;2023-05-25T10:19:11;99177.59;;;20.17;93.50
61484;BME280;47349;55.640;37.692;2023-05-25T10:25:22;99179.94;;;20.31;91.88
61484;BME280;47349;55.640;37.692;2023-05-25T10:28:07;99207.22;;;20.52;92.15
61484;BME280;47349;55.640;37.692;2023-05-25T10:30:58;99186.34;;;20.41;92.10
61484;BME280;47349;55.640;37.692;2023-05-25T10:33:26;99202.22;;;20.66;91.62
61484;BME280;47349;55.640;37.692;2023-05-25T10:36:05;99214.19;;;20.65;91.65
61484;BME280;47349;55.640;37.692;2023-05-25T10:38:50;99180.16;;;20.46;94.12
61484;BME280;47349;55.640;37.692;2023-05-25T10:41:54;99184.63;;;20.52;94.52
61484;BME280;47349;55.640;37.692;2023-05-25T10:44:36;99198.75;;;20.32;93.73
61484;BME280;47349;55.640;37.692;2023-05-25T10:47:09;99216.63;;;19.89;97.25
61484;BME280;47349;55.640;37.692;2023-05-25T10:49:59;99168.25;;;19.29;99.56
61484;BME280;47349;55.640;37.692;2023-05-25T10:52:43;99174.88;;;19.05;100.00
61484;BME280;47349;55.640;37.692;2023-05-25T10:55:43;99186.25;;;19.02;100.00
61484;BME280;47349;55.640;37.692;2023-05-25T10:58:31;99190.81;;;18.84;100.00
61484;BME280;47349;55.640;37.692;2023-05-25T11:01:32;99191.50;;;18.91;100.00
61484;BME280;47349;55.640;37.692;2023-05-25T11:04:46;99160.47;;;18.75;100.00
61484;BME280;47349;55.640;37.692;2023-05-25T11:07:51;99168.00;;;18.85;100.00
61484;BME280;47349;55.640;37.692;2023-05-25T11:13:47;99183.53;;;19.02;100.00
61484;BME280;47349;55.640;37.692;2023-05-25T11:21:57;99139.22;;;18.84;100.00
61484;BME280;47349;55.640;37.692;2023-05-25T11:25:43;99159.38;;;19.17;100.00
61484;BME280;47349;55.640;37.692;2023-05-25T11:29:39;99169.94;;;19.30;100.00
61484;BME280;47349;55.640;37.692;2023-05-25T11:33:10;99127.84;;;19.16;100.00
61484;BME280;47349;55.640;37.692;2023-05-25T11:36:14;99132.03;;;19.57;98.91
61484;BME280;47349;55.640;37.692;2023-05-25T11:39:10;99129.28;;;20.08;94.58
61484;BME280;47349;55.640;37.692;2023-05-25T11:41:55;99144.72;;;20.41;91.96
61484;BME280;47349;55.640;37.692;2023-05-25T11:44:46;99111.00;;;20.03;88.21
61484;BME280;47349;55.640;37.692;2023-05-25T11:47:32;99102.56;;;19.83;91.02
61484;BME280;47349;55.640;37.692;2023-05-25T11:50:16;99119.63;;;19.78;93.24
61484;BME280;47349;55.640;37.692;2023-05-25T11:53:03;99103.25;;;19.39;90.39
61484;BME280;47349;55.640;37.692;2023-05-25T11:55:51;99126.94;;;19.27;92.45
61484;BME280;47349;55.640;37.692;2023-05-25T11:58:34;99119.34;;;19.29;93.61
61484;BME280;47349;55.640;37.692;2023-05-25T12:01:21;99136.25;;;19.31;95.41
61484;BME280;47349;55.640;37.692;2023-05-25T12:04:10;99144.41;;;19.48;94.16
61484;BME280;47349;55.640;37.692;2023-05-25T12:07:03;99116.84;;;19.39;93.97
61484;BME280;47349;55.640;37.692;2023-05-25T12:09:47;99131.97;;;19.52;93.82
61484;BME280;47349;55.640;37.692;2023-05-25T12:12:41;99135.50;;;19.52;93.43
61484;BME280;47349;55.640;37.692;2023-05-25T12:15:25;99096.56;;;19.30;95.57
61484;BME280;47349;55.640;37.692;2023-05-25T12:18:08;99102.31;;;19.50;94.95
61484;BME280;47349;55.640;37.692;2023-05-25T12:20:50;99091.22;;;19.35;94.02
61484;BME280;47349;55.640;37.692;2023-05-25T12:23:33;99100.97;;;19.03;95.87
61484;BME280;47349;55.640;37.692;2023-05-25T12:26:16;99107.06;;;19.10;96.05
61484;BME280;47349;55.640;37.692;2023-05-25T12:29:06;99112.50;;;18.93;96.47
61484;BME280;47349;55.640;37.692;2023-05-25T12:31:46;99104.19;;;18.99;96.94
61484;BME280;47349;55.640;37.692;2023-05-25T12:34:27;99105.75;;;18.95;96.43
61484;BME280;47349;55.640;37.692;2023-05-25T12:37:18;99106.44;;;18.74;95.09
61484;BME280;47349;55.640;37.692;2023-05-25T12:40:15;99121.28;;;18.83;98.17
61484;BME280;47349;55.640;37.692;2023-05-25T12:42:56;99087.56;;;18.67;97.74
61484;BME280;47349;55.640;37.692;2023-05-25T12:45:29;99095.63;;;18.91;97.04
61484;BME280;47349;55.640;37.692;2023-05-25T12:48:10;99102.63;;;18.87;96.22
61484;BME280;47349;55.640;37.692;2023-05-25T12:50:56;99123.72;;;19.13;96.22
61484;BME280;47349;55.640;37.692;2023-05-25T12:53:27;99101.06;;;19.08;96.79
61484;BME280;47349;55.640;37.692;2023-05-25T12:56:08;99102.28;;;18.83;95.58
61484;BME280;47349;55.640;37.692;2023-05-25T12:58:40;99102.19;;;18.78;93.85
61484;BME280;47349;55.640;37.692;2023-05-25T13:01:09;99138.28;;;19.07;94.10
61484;BME280;47349;55.640;37.692;2023-05-25T13:03:41;99107.78;;;18.88;93.77
61484;BME280;47349;55.640;37.692;2023-05-25T13:06:23;99103.28;;;18.94;94.09
61484;BME280;47349;55.640;37.692;2023-05-25T13:08:52;99133.84;;;19.18;93.06
61484;BME280;47349;55.640;37.692;2023-05-25T13:11:20;99108.16;;;19.09;92.97
61484;BME280;47349;55.640;37.692;2023-05-25T13:13:49;99104.78;;;19.02;91.63
61484;BME280;47349;55.640;37.692;2023-05-25T13:16:16;99127.34;;;19.19;93.31
61484;BME280;47349;55.640;37.692;2023-05-25T13:18:44;99117.44;;;18.96;92.82
61484;BME280;47349;55.640;37.692;2023-05-25T13:21:11;99112.66;;;18.86;93.54
61484;BME280;47349;55.640;37.692;2023-05-25T13:23:38;99105.25;;;18.82;93.33
61484;BME280;47349;55.640;37.692;2023-05-25T13:26:05;99115.75;;;18.78;93.87
61484;BME280;47349;55.640;37.692;2023-05-25T13:28:33;99111.66;;;18.92;93.32
61484;BME280;47349;55.640;37.692;2023-05-25T13:31:00;99117.56;;;18.89;92.86
61484;BME280;47349;55.640;37.692;2023-05-25T13:33:27;99150.88;;;19.13;92.60
61484;BME280;47349;55.640;37.692;2023-05-25T13:35:54;99137.97;;;19.20;92.70
61484;BME280;47349;55.640;37.692;2023-05-25T13:38:35;99132.47;;;19.32;91.82
61484;BME280;47349;55.640;37.692;2023-05-25T13:41:02;99145.31;;;19.54;90.83
61484;BME280;47349;55.640;37.692;2023-05-25T13:43:29;99131.97;;;19.35;91.90
61484;BME280;47349;55.640;37.692;2023-05-25T13:45:57;99147.69;;;19.33;91.48
61484;BME280;47349;55.640;37.692;2023-05-25T13:48:26;99153.47;;;19.20;91.59
61484;BME280;47349;55.640;37.692;2023-05-25T13:50:55;99154.00;;;19.05;92.61
61484;BME280;47349;55.640;37.692;2023-05-25T13:53:22;99144.16;;;18.87;92.42
61484;BME280;47349;55.640;37.692;2023-05-25T13:55:50;99143.53;;;19.14;92.69
61484;BME280;47349;55.640;37.692;2023-05-25T13:58:36;99150.88;;;19.13;92.24
61484;BME280;47349;55.640;37.692;2023-05-25T14:01:03;99118.25;;;18.96;91.00
61484;BME280;47349;55.640;37.692;2023-05-25T14:03:31;99149.75;;;19.26;90.73
61484;BME280;47349;55.640;37.692;2023-05-25T14:05:59;99143.50;;;19.42;90.05
61484;BME280;47349;55.640;37.692;2023-05-25T14:08:44;99139.13;;;19.41;88.92
61484;BME280;47349;55.640;37.692;2023-05-25T14:11:12;99117.22;;;19.31;89.38
61484;BME280;47349;55.640;37.692;2023-05-25T14:13:39;99118.63;;;19.50;89.24
61484;BME280;47349;55.640;37.692;2023-05-25T14:16:06;99119.72;;;19.49;88.55
61484;BME280;47349;55.640;37.692;2023-05-25T14:18:35;99107.75;;;19.50;88.25
61484;BME280;47349;55.640;37.692;2023-05-25T14:21:02;99107.75;;;19.34;88.74
61484;BME280;47349;55.640;37.692;2023-05-25T14:23:29;99101.00;;;19.36;89.09
61484;BME280;47349;55.640;37.692;2023-05-25T14:25:57;99106.44;;;19.36;88.76
61484;BME280;47349;55.640;37.692;2023-05-25T14:28:24;99112.13;;;19.51;86.49
61484;BME280;47349;55.640;37.692;2023-05-25T14:30:51;99102.00;;;19.30;86.90
61484;BME280;47349;55.640;37.692;2023-05-25T14:33:37;99111.31;;;19.34;86.94
61484;BME280;47349;55.640;37.692;2023-05-25T14:36:08;99102.50;;;19.10;87.25
61484;BME280;47349;55.640;37.692;2023-05-25T14:38:35;99083.44;;;18.93;88.62
61484;BME280;47349;55.640;37.692;2023-05-25T14:41:02;99091.59;;;18.93;90.18
61484;BME280;47349;55.640;37.692;2023-05-25T14:46:16;99097.06;;;19.10;90.35
61484;BME280;47349;55.640;37.692;2023-05-25T14:48:44;99095.47;;;18.97;90.93
61484;BME280;47349;55.640;37.692;2023-05-25T14:51:11;99095.72;;;18.96;90.40
61484;BME280;47349;55.640;37.692;2023-05-25T14:53:38;99066.41;;;18.81;90.73
61484;BME280;47349;55.640;37.692;2023-05-25T14:56:05;99097.94;;;18.99;90.31
61484;BME280;47349;55.640;37.692;2023-05-25T14:58:54;99100.97;;;19.03;90.07
61484;BME280;47349;55.640;37.692;2023-05-25T15:01:22;99093.75;;;18.91;88.84
61484;BME280;47349;55.640;37.692;2023-05-25T15:03:51;99081.91;;;18.69;89.84
61484;BME280;47349;55.640;37.692;2023-05-25T15:06:18;99083.66;;;18.75;89.86
61484;BME280;47349;55.640;37.692;2023-05-25T15:11:31;99087.91;;;18.71;90.29
61484;BME280;47349;55.640;37.692;2023-05-25T15:14:04;99081.66;;;18.70;89.05
61484;BME280;47349;55.640;37.692;2023-05-25T15:16:50;99085.31;;;18.76;88.99
61484;BME280;47349;55.640;37.692;2023-05-25T15:19:17;99089.59;;;18.72;89.34
61484;BME280;47349;55.640;37.692;2023-05-25T15:21:44;99110.69;;;18.98;89.24
61484;BME280;47349;55.640;37.692;2023-05-25T15:24:12;99077.66;;;18.90;88.52
61484;BME280;47349;55.640;37.692;2023-05-25T15:26:42;99089.47;;;18.95;88.38
61484;BME280;47349;55.640;37.692;2023-05-25T15:29:28;99105.50;;;19.14;88.63
61484;BME280;47349;55.640;37.692;2023-05-25T15:31:55;99105.50;;;18.97;88.75
61484;BME280;47349;55.640;37.692;2023-05-25T15:34:25;99104.78;;;19.02;89.02
61484;BME280;47349;55.640;37.692;2023-05-25T15:36:52;99076.09;;;18.77;89.44
61484;BME280;47349;55.640;37.692;2023-05-25T15:39:19;99106.53;;;18.79;89.77
61484;BME280;47349;55.640;37.692;2023-05-25T15:41:47;99112.22;;;18.66;88.33
61484;BME280;47349;55.640;37.692;2023-05-25T15:44:14;99090.31;;;18.56;87.05
61484;BME280;47349;55.640;37.692;2023-05-25T15:47:00;99082.56;;;18.47;86.57
61484;BME280;47349;55.640;37.692;2023-05-25T15:49:27;99110.34;;;18.66;85.72
61484;BME280;47349;55.640;37.692;2023-05-25T15:51:54;99105.97;;;18.65;83.84
61484;BME280;47349;55.640;37.692;2023-05-25T15:54:21;99092.50;;;18.99;81.90
61484;BME280;47349;55.640;37.692;2023-05-25T15:56:49;99112.88;;;19.30;81.00
61484;BME280;47349;55.640;37.692;2023-05-25T15:59:16;99080.34;;;19.02;80.40
61484;BME280;47349;55.640;37.692;2023-05-25T16:01:43;99098.19;;;19.14;81.28
61484;BME280;47349;55.640;37.692;2023-05-25T16:04:11;99098.91;;;19.10;81.17
61484;BME280;47349;55.640;37.692;2023-05-25T16:06:39;99087.31;;;18.97;81.65
61484;BME280;47349;55.640;37.692;2023-05-25T16:09:06;99097.19;;;19.04;81.97
61484;BME280;47349;55.640;37.692;2023-05-25T16:11:34;99081.41;;;19.00;82.12
61484;BME280;47349;55.640;37.692;2023-05-25T16:14:01;99092.44;;;19.11;81.81
61484;BME280;47349;55.640;37.692;2023-05-25T16:16:28;99091.19;;;19.02;81.62
61484;BME280;47349;55.640;37.692;2023-05-25T16:18:56;99088.06;;;19.10;81.75
61484;BME280;47349;55.640;37.692;2023-05-25T16:21:23;99092.69;;;19.43;80.90
61484;BME280;47349;55.640;37.692;2023-05-25T16:23:50;99076.47;;;20.03;77.99
61484;BME280;47349;55.640;37.692;2023-05-25T16:26:17;99077.72;;;20.62;76.75
61484;BME280;47349;55.640;37.692;2023-05-25T16:28:44;99067.16;;;20.97;73.91
61484;BME280;47349;55.640;37.692;2023-05-25T16:31:12;99055.53;;;21.34;71.26
61484;BME280;47349;55.640;37.692;2023-05-25T16:33:41;99066.56;;;21.54;70.24
61484;BME280;47349;55.640;37.692;2023-05-25T16:36:09;99072.28;;;21.95;69.50
61484;BME280;47349;55.640;37.692;2023-05-25T16:38:39;99080.03;;;22.14;68.07
61484;BME280;47349;55.640;37.692;2023-05-25T16:41:06;99077.81;;;22.11;67.18
61484;BME280;47349;55.640;37.692;2023-05-25T16:43:34;99068.84;;;22.15;67.55
61484;BME280;47349;55.640;37.692;2023-05-25T16:46:04;99063.16;;;22.27;66.54
61484;BME280;47349;55.640;37.692;2023-05-25T16:48:33;99068.63;;;22.32;65.86
61484;BME280;47349;55.640;37.692;2023-05-25T16:51:01;99072.97;;;22.28;66.49
61484;BME280;47349;55.640;37.692;2023-05-25T16:53:32;99084.56;;;21.98;67.54
61484;BME280;47349;55.640;37.692;2023-05-25T16:55:59;99074.31;;;21.68;69.12
61484;BME280;47349;55.640;37.692;2023-05-25T16:58:29;99049.81;;;21.36;70.10
61484;BME280;47349;55.640;37.692;2023-05-25T17:01:00;99056.72;;;21.48;70.73
61484;BME280;47349;55.640;37.692;2023-05-25T17:03:31;99076.41;;;21.61;70.06
61484;BME280;47349;55.640;37.692;2023-05-25T17:05:59;99069.31;;;21.60;69.83
61484;BME280;47349;55.640;37.692;2023-05-25T17:08:27;99049.56;;;21.37;70.10
61484;BME280;47349;55.640;37.692;2023-05-25T17:10:57;99068.72;;;21.47;70.54
61484;BME280;47349;55.640;37.692;2023-05-25T17:13:27;99051.41;;;21.32;70.34
61484;BME280;47349;55.640;37.692;2023-05-25T17:15:57;99040.69;;;21.25;70.45
61484;BME280;47349;55.640;37.692;2023-05-25T17:18:27;99057.50;;;21.12;70.67
61484;BME280;47349;55.640;37.692;2023-05-25T17:21:04;99045.97;;;20.99;71.55
61484;BME280;47349;55.640;37.692;2023-05-25T17:23:35;99062.81;;;20.96;71.74
61484;BME280;47349;55.640;37.692;2023-05-25T17:26:02;99076.34;;;20.86;72.28
61484;BME280;47349;55.640;37.692;2023-05-25T17:28:30;99054.75;;;20.52;73.51
61484;BME280;47349;55.640;37.692;2023-05-25T17:30:58;99060.72;;;20.27;74.67
61484;BME280;47349;55.640;37.692;2023-05-25T17:55:04;99093.25;;;19.28;80.55
61484;BME280;47349;55.640;37.692;2023-05-25T17:57:32;99076.78;;;19.18;80.65
61484;BME280;47349;55.640;37.692;2023-05-25T17:59:59;99089.94;;;19.09;81.26
61484;BME280;47349;55.640;37.692;2023-05-25T18:02:37;99076.94;;;18.94;81.78
61484;BME280;47349;55.640;37.692;2023-05-25T18:05:08;99085.91;;;18.95;82.28
61484;BME280;47349;55.640;37.692;2023-05-25T18:17:19;99081.63;;;18.82;83.24